Time;durP1;ratioP1;P1;durP2;ratioP2;P2;SDS_P1;SDS_P2;PMS_P1;PMS_P2;Temp;Humidity;BMP_temperature;BMP_pressure;BME280_temperature;BME280_humidity;BME280_pressure;Samples;Min_cycle;Max_cycle;Signal;HPM_P1;HPM_P2
2022/04/02 00:02:11;;;;;;;12.23;8.43;;;;;;;;;;5064375;28;20122;-88
2022/04/02 00:04:38;;;;;;;12.80;9.13;;;;;;;;;;5064842;28;20132;-89
2022/04/02 00:07:05;;;;;;;12.57;8.43;;;;;;;;;;5063623;28;20079;-89
2022/04/02 00:09:31;;;;;;;13.90;10.00;;;;;;;;;;5063502;28;20075;-88
2022/04/02 00:11:59;;;;;;;12.45;9.27;;;;;;;;;;5065345;28;20071;-88
2022/04/02 00:14:25;;;;;;;12.43;8.82;;;;;;;;;;5065553;28;20313;-89
2022/04/02 00:16:53;;;;;;;14.63;9.65;;;;;;;;;;5065340;28;20076;-91
2022/04/02 00:19:21;;;;;;;13.13;9.07;;;;;;;;;;5066067;28;20509;-88
2022/04/02 00:21:47;;;;;;;16.30;10.48;;;;;;;;;;5067472;28;20050;-89
2022/04/02 00:24:14;;;;;;;17.92;10.73;;;;;;;;;;5066900;28;20114;-89
2022/04/02 00:26:40;;;;;;;18.83;11.40;;;;;;;;;;5068130;28;20075;-88
2022/04/02 00:29:11;;;;;;;16.95;10.75;;;;;;;;;;5062165;28;20512;-88
2022/04/02 00:31:37;;;;;;;15.85;10.75;;;;;;;;;;5062083;28;20409;-88
2022/04/02 00:34:07;;;;;;;16.88;11.25;;;;;;;;;;5066799;28;20052;-89
2022/04/02 00:36:38;;;;;;;18.52;11.95;;;;;;;;;;5068049;28;20492;-89
2022/04/02 00:39:06;;;;;;;17.77;11.32;;;;;;;;;;5065154;28;20060;-88
2022/04/02 00:41:33;;;;;;;18.40;11.40;;;;;;;;;;5067833;28;20040;-88
2022/04/02 00:44:01;;;;;;;16.77;11.07;;;;;;;;;;5062714;28;20059;-89
2022/04/02 00:46:28;;;;;;;16.85;11.38;;;;;;;;;;5063709;28;20117;-89
2022/04/02 00:48:55;;;;;;;20.80;13.00;;;;;;;;;;5064654;28;20493;-88
2022/04/02 00:51:23;;;;;;;16.83;11.40;;;;;;;;;;5063360;28;20171;-88
2022/04/02 00:53:51;;;;;;;16.50;11.23;;;;;;;;;;5065859;28;20044;-88
2022/04/02 00:56:18;;;;;;;20.38;12.85;;;;;;;;;;5065445;28;20079;-88
2022/04/02 00:58:46;;;;;;;17.65;11.45;;;;;;;;;;5064910;28;20041;-89
2022/04/02 01:01:13;;;;;;;20.27;11.65;;;;;;;;;;5061961;28;20083;-89
2022/04/02 01:03:39;;;;;;;22.15;13.52;;;;;;;;;;5063825;28;20049;-88
2022/04/02 01:06:06;;;;;;;20.95;13.05;;;;;;;;;;5065263;28;20525;-89
2022/04/02 01:08:34;;;;;;;23.73;14.25;;;;;;;;;;5063383;28;20122;-89
2022/04/02 01:11:01;;;;;;;20.55;12.90;;;;;;;;;;5062518;28;20047;-89
2022/04/02 01:13:28;;;;;;;20.63;12.65;;;;;;;;;;5062951;28;20041;-89
2022/04/02 01:15:56;;;;;;;19.50;12.25;;;;;;;;;;5062668;28;20452;-89
2022/04/02 01:18:23;;;;;;;21.63;13.38;;;;;;;;;;5063759;28;20524;-89
2022/04/02 01:20:50;;;;;;;18.42;11.82;;;;;;;;;;5060429;28;20164;-89
2022/04/02 01:23:18;;;;;;;20.95;13.52;;;;;;;;;;5061743;28;20478;-89
2022/04/02 01:25:44;;;;;;;20.42;12.68;;;;;;;;;;5065665;28;20068;-89
2022/04/02 01:28:11;;;;;;;18.55;12.15;;;;;;;;;;5065650;28;20053;-89
2022/04/02 01:30:38;;;;;;;20.42;12.68;;;;;;;;;;5065396;28;20091;-89
2022/04/02 01:33:05;;;;;;;19.38;11.77;;;;;;;;;;5068410;28;20045;-88
2022/04/02 01:35:32;;;;;;;21.95;12.82;;;;;;;;;;5069727;28;20059;-89
2022/04/02 01:37:59;;;;;;;20.48;12.38;;;;;;;;;;5058340;28;20109;-88
2022/04/02 01:40:26;;;;;;;20.00;12.48;;;;;;;;;;5063716;28;20049;-89
2022/04/02 01:42:53;;;;;;;20.60;13.13;;;;;;;;;;5064222;28;20157;-89
2022/04/02 01:45:20;;;;;;;21.95;13.75;;;;;;;;;;5063036;28;20353;-88
2022/04/02 01:47:50;;;;;;;21.00;12.52;;;;;;;;;;5063997;28;20045;-89
2022/04/02 01:50:17;;;;;;;22.60;12.93;;;;;;;;;;5065837;28;20075;-88
2022/04/02 01:52:44;;;;;;;19.42;12.05;;;;;;;;;;5066521;28;20064;-89
2022/04/02 01:55:11;;;;;;;20.85;12.60;;;;;;;;;;5066294;28;20459;-89
2022/04/02 01:57:38;;;;;;;19.25;12.30;;;;;;;;;;5065569;28;20142;-88
2022/04/02 02:00:06;;;;;;;21.10;12.70;;;;;;;;;;5065814;28;20564;-88
2022/04/02 02:02:34;;;;;;;17.48;11.52;;;;;;;;;;5066365;28;20054;-89
2022/04/02 02:05:00;;;;;;;19.38;12.02;;;;;;;;;;5066753;28;20057;-88
2022/04/02 02:07:27;;;;;;;16.52;11.13;;;;;;;;;;5065963;28;20074;-88
2022/04/02 02:09:57;;;;;;;20.00;12.02;;;;;;;;;;5047406;28;20047;-88
2022/04/02 02:12:25;;;;;;;22.10;12.73;;;;;;;;;;5064417;28;20045;-88
2022/04/02 02:14:53;;;;;;;22.88;12.95;;;;;;;;;;5065898;28;20052;-87
2022/04/02 02:17:20;;;;;;;20.80;12.40;;;;;;;;;;5064693;28;20123;-87
2022/04/02 02:19:46;;;;;;;19.80;13.82;;;;;;;;;;5065303;28;20067;-88
2022/04/02 02:22:13;;;;;;;20.70;12.73;;;;;;;;;;5067418;28;20139;-88
2022/04/02 02:24:39;;;;;;;18.52;11.63;;;;;;;;;;5063634;28;20044;-88
2022/04/02 02:27:07;;;;;;;19.25;12.23;;;;;;;;;;5065133;28;20084;-88
2022/04/02 02:29:33;;;;;;;22.13;13.63;;;;;;;;;;5065565;28;20055;-88
2022/04/02 02:32:01;;;;;;;25.02;13.45;;;;;;;;;;5062988;28;20096;-88
2022/04/02 02:37:12;;;;;;;17.00;10.80;;;;;;;;;;5065077;28;20163;-88
2022/04/02 02:39:39;;;;;;;19.40;12.07;;;;;;;;;;5067201;28;20072;-87
2022/04/02 02:42:06;;;;;;;17.63;11.70;;;;;;;;;;5062153;28;20138;-88
2022/04/02 02:44:33;;;;;;;18.23;11.63;;;;;;;;;;5065156;28;20124;-88
2022/04/02 02:47:01;;;;;;;18.77;12.13;;;;;;;;;;5064429;28;20133;-88
2022/04/02 02:49:28;;;;;;;16.83;10.57;;;;;;;;;;5063883;28;21651;-88
2022/04/02 02:51:55;;;;;;;21.52;11.65;;;;;;;;;;5065343;28;20040;-88
2022/04/02 02:54:21;;;;;;;21.48;10.88;;;;;;;;;;5064188;28;20072;-88
2022/04/02 02:56:48;;;;;;;21.95;11.93;;;;;;;;;;5063990;28;20132;-88
2022/04/02 02:59:15;;;;;;;18.63;11.98;;;;;;;;;;5065079;28;20515;-88
2022/04/02 03:01:41;;;;;;;17.50;12.25;;;;;;;;;;5063020;28;21231;-87
2022/04/02 03:04:09;;;;;;;24.23;12.18;;;;;;;;;;5064192;28;20123;-87
2022/04/02 03:06:36;;;;;;;19.33;11.90;;;;;;;;;;5065346;28;20052;-87
2022/04/02 03:09:03;;;;;;;23.27;11.68;;;;;;;;;;5064823;28;20048;-88
2022/04/02 03:11:30;;;;;;;17.58;11.63;;;;;;;;;;5065943;28;20762;-88
2022/04/02 03:13:57;;;;;;;21.58;11.75;;;;;;;;;;5063700;28;20052;-88
2022/04/02 03:16:23;;;;;;;22.35;12.65;;;;;;;;;;5064775;28;20053;-88
2022/04/02 03:18:50;;;;;;;21.98;11.75;;;;;;;;;;5064260;28;20091;-88
2022/04/02 03:21:18;;;;;;;17.05;11.30;;;;;;;;;;5064459;28;20049;-88
2022/04/02 03:23:45;;;;;;;25.40;13.27;;;;;;;;;;5062576;28;20075;-88
2022/04/02 03:26:12;;;;;;;24.42;14.00;;;;;;;;;;5062755;28;20076;-88
2022/04/02 03:28:38;;;;;;;18.00;11.48;;;;;;;;;;5061845;28;20416;-88
2022/04/02 03:31:05;;;;;;;21.65;12.70;;;;;;;;;;5062242;28;20136;-88
2022/04/02 03:33:32;;;;;;;18.58;11.00;;;;;;;;;;5064265;28;20048;-88
2022/04/02 03:35:59;;;;;;;20.67;11.88;;;;;;;;;;5063505;28;20076;-88
2022/04/02 03:38:28;;;;;;;20.98;12.50;;;;;;;;;;5064011;28;20040;-89
2022/04/02 03:40:56;;;;;;;20.95;12.45;;;;;;;;;;5067995;28;20409;-88
2022/04/02 03:43:23;;;;;;;23.80;12.00;;;;;;;;;;5068182;28;20513;-88
2022/04/02 03:45:51;;;;;;;19.20;12.40;;;;;;;;;;5068283;28;20076;-89
2022/04/02 03:48:17;;;;;;;17.77;11.40;;;;;;;;;;5066435;28;20317;-89
2022/04/02 03:50:44;;;;;;;24.42;12.93;;;;;;;;;;5066730;28;20098;-88
2022/04/02 03:53:10;;;;;;;22.63;13.18;;;;;;;;;;5066840;28;20048;-89
2022/04/02 03:55:49;;;;;;;21.45;12.55;;;;;;;;;;5065322;28;20040;-88
2022/04/02 03:58:17;;;;;;;19.25;12.35;;;;;;;;;;5062570;28;20048;-88
2022/04/02 04:00:47;;;;;;;21.83;12.48;;;;;;;;;;5060829;28;20084;-88
2022/04/02 04:03:18;;;;;;;22.55;12.30;;;;;;;;;;5067770;28;20079;-88
2022/04/02 04:05:48;;;;;;;17.90;11.82;;;;;;;;;;5066891;28;20044;-88
2022/04/02 04:08:15;;;;;;;21.20;13.20;;;;;;;;;;5066049;28;20048;-89
2022/04/02 04:10:43;;;;;;;21.55;12.20;;;;;;;;;;5066205;28;20068;-88
2022/04/02 04:13:13;;;;;;;27.35;14.02;;;;;;;;;;5067697;28;20547;-89
2022/04/02 04:15:40;;;;;;;23.40;13.15;;;;;;;;;;5067291;28;20049;-88
2022/04/02 04:18:07;;;;;;;25.48;13.82;;;;;;;;;;5066535;28;20056;-88
2022/04/02 04:20:34;;;;;;;21.02;12.32;;;;;;;;;;5065973;28;20563;-88
2022/04/02 04:23:01;;;;;;;22.83;14.10;;;;;;;;;;5065629;28;20056;-88
2022/04/02 04:25:29;;;;;;;19.38;11.52;;;;;;;;;;5064949;28;20064;-88
2022/04/02 04:28:01;;;;;;;22.85;12.38;;;;;;;;;;5062572;28;20482;-89
2022/04/02 04:30:31;;;;;;;19.08;11.60;;;;;;;;;;5064172;28;20441;-89
2022/04/02 04:33:04;;;;;;;17.55;11.98;;;;;;;;;;5068232;28;20517;-89
2022/04/02 04:35:31;;;;;;;20.45;10.73;;;;;;;;;;5066195;28;20335;-89
2022/04/02 04:37:58;;;;;;;20.63;11.80;;;;;;;;;;5067679;28;20118;-89
2022/04/02 04:40:25;;;;;;;19.60;10.40;;;;;;;;;;5062302;28;20148;-89
2022/04/02 04:42:52;;;;;;;23.83;11.98;;;;;;;;;;5065855;28;20048;-89
2022/04/02 04:45:20;;;;;;;21.80;11.25;;;;;;;;;;5065712;28;20486;-88
2022/04/02 04:47:47;;;;;;;17.38;11.50;;;;;;;;;;5070056;28;20048;-88
2022/04/02 04:50:14;;;;;;;18.88;10.50;;;;;;;;;;5050515;28;20053;-89
2022/04/02 04:52:41;;;;;;;20.80;11.48;;;;;;;;;;5063681;28;20098;-88
2022/04/02 04:55:15;;;;;;;22.27;10.68;;;;;;;;;;5067271;28;20056;-89
2022/04/02 04:57:42;;;;;;;22.30;11.57;;;;;;;;;;5059429;28;20045;-88
2022/04/02 05:00:12;;;;;;;19.92;10.18;;;;;;;;;;5058676;28;20052;-89
2022/04/02 05:02:40;;;;;;;19.88;10.98;;;;;;;;;;5071660;28;20456;-88
2022/04/02 05:05:11;;;;;;;19.67;10.82;;;;;;;;;;5065221;28;20139;-88
2022/04/02 05:07:39;;;;;;;18.15;10.32;;;;;;;;;;5071151;28;20053;-88
2022/04/02 05:10:08;;;;;;;21.40;10.43;;;;;;;;;;5066383;28;20110;-88
2022/04/02 05:12:36;;;;;;;16.00;9.60;;;;;;;;;;5051095;28;20048;-89
2022/04/02 05:15:04;;;;;;;19.52;9.80;;;;;;;;;;5051357;28;20059;-89
2022/04/02 05:17:33;;;;;;;20.08;10.63;;;;;;;;;;5050060;28;20111;-89
2022/04/02 05:20:32;;;;;;;18.33;10.43;;;;;;;;;;5032852;28;20076;-89
2022/04/02 05:23:02;;;;;;;20.08;11.65;;;;;;;;;;5030455;28;20049;-89
2022/04/02 05:25:29;;;;;;;16.80;10.85;;;;;;;;;;5049416;28;20352;-89
2022/04/02 05:28:00;;;;;;;19.52;10.60;;;;;;;;;;5048104;28;20081;-89
2022/04/02 05:30:28;;;;;;;17.98;10.88;;;;;;;;;;5049454;28;20060;-89
2022/04/02 05:32:55;;;;;;;17.13;10.75;;;;;;;;;;5048392;28;20051;-89
2022/04/02 05:35:23;;;;;;;22.63;10.50;;;;;;;;;;5050475;28;20063;-89
2022/04/02 05:37:51;;;;;;;19.23;10.95;;;;;;;;;;5047223;28;20053;-89
2022/04/02 05:44:20;;;;;;;17.08;10.07;;;;;;;;;;5049739;28;20048;-89
2022/04/02 05:46:46;;;;;;;20.48;10.95;;;;;;;;;;5052944;28;20534;-89
2022/04/02 05:49:13;;;;;;;17.35;10.00;;;;;;;;;;5054756;28;20061;-89
2022/04/02 05:51:40;;;;;;;20.60;10.55;;;;;;;;;;5052533;28;20045;-89
2022/04/02 05:54:09;;;;;;;18.20;9.63;;;;;;;;;;5053638;28;20049;-89
2022/04/02 05:56:37;;;;;;;17.20;8.75;;;;;;;;;;5030998;28;20049;-89
2022/04/02 05:59:09;;;;;;;17.23;10.75;;;;;;;;;;5049409;28;20417;-89
2022/04/02 06:01:36;;;;;;;19.30;11.07;;;;;;;;;;5046038;28;20064;-89
2022/04/02 06:04:04;;;;;;;18.35;10.50;;;;;;;;;;5052781;28;20053;-89
2022/04/02 06:06:31;;;;;;;19.23;10.80;;;;;;;;;;5052237;28;20049;-89
2022/04/02 06:09:02;;;;;;;16.75;10.50;;;;;;;;;;5052445;28;20075;-89
2022/04/02 06:11:29;;;;;;;22.65;11.20;;;;;;;;;;5056115;28;20048;-89
2022/04/02 06:13:58;;;;;;;16.08;9.75;;;;;;;;;;5052083;28;20128;-89
2022/04/02 06:16:27;;;;;;;14.57;9.43;;;;;;;;;;5064618;28;20068;-89
2022/04/02 06:18:54;;;;;;;15.25;9.82;;;;;;;;;;5074132;28;20049;-87
2022/04/02 06:21:21;;;;;;;16.45;10.18;;;;;;;;;;5072892;28;20455;-87
2022/04/02 06:23:47;;;;;;;16.90;9.95;;;;;;;;;;5073504;28;20497;-87
2022/04/02 06:26:14;;;;;;;20.08;11.00;;;;;;;;;;5072519;28;20052;-87
2022/04/02 06:28:43;;;;;;;19.60;10.10;;;;;;;;;;5073873;28;20040;-87
2022/04/02 06:31:10;;;;;;;17.80;9.60;;;;;;;;;;5065647;28;20053;-87
2022/04/02 06:33:38;;;;;;;16.05;10.15;;;;;;;;;;5073684;28;20040;-88
2022/04/02 06:36:07;;;;;;;19.52;10.25;;;;;;;;;;5072652;28;20080;-87
2022/04/02 06:38:34;;;;;;;17.58;10.07;;;;;;;;;;5065128;28;20143;-87
2022/04/02 06:41:01;;;;;;;17.95;9.88;;;;;;;;;;5059985;28;20720;-87
2022/04/02 06:43:27;;;;;;;16.77;9.27;;;;;;;;;;5077007;28;20123;-87
2022/04/02 06:45:54;;;;;;;14.27;9.23;;;;;;;;;;5068968;28;20549;-87
2022/04/02 06:48:20;;;;;;;16.67;9.95;;;;;;;;;;5062243;28;20057;-87
2022/04/02 06:50:48;;;;;;;18.55;11.32;;;;;;;;;;5067579;28;20040;-88
2022/04/02 06:53:15;;;;;;;17.23;9.68;;;;;;;;;;5056981;28;20048;-87
2022/04/02 06:55:42;;;;;;;15.48;9.52;;;;;;;;;;5069741;28;20079;-87
2022/04/02 06:58:10;;;;;;;18.10;10.43;;;;;;;;;;5070582;28;20667;-86
2022/04/02 07:00:36;;;;;;;16.15;10.02;;;;;;;;;;5068910;28;20064;-87
2022/04/02 07:03:03;;;;;;;16.77;10.52;;;;;;;;;;5071810;28;20469;-87
2022/04/02 07:05:29;;;;;;;16.75;9.93;;;;;;;;;;5069628;28;20044;-87
2022/04/02 07:07:57;;;;;;;13.73;9.30;;;;;;;;;;5068707;28;20084;-87
2022/04/02 07:10:24;;;;;;;17.60;9.20;;;;;;;;;;5066527;28;20040;-87
2022/04/02 07:13:02;;;;;;;20.42;12.32;;;;;;;;;;5068963;28;20364;-87
2022/04/02 07:15:28;;;;;;;21.88;10.73;;;;;;;;;;5070704;28;20554;-86
2022/04/02 07:17:55;;;;;;;19.27;9.93;;;;;;;;;;5069676;28;20090;-86
2022/04/02 07:20:26;;;;;;;18.25;10.05;;;;;;;;;;5070534;28;20547;-86
2022/04/02 07:22:53;;;;;;;13.55;9.05;;;;;;;;;;5068407;28;20632;-86
2022/04/02 07:25:22;;;;;;;15.88;9.55;;;;;;;;;;5071344;28;20052;-86
2022/04/02 07:27:50;;;;;;;16.17;9.93;;;;;;;;;;5066852;28;20102;-87
2022/04/02 07:30:17;;;;;;;18.02;9.90;;;;;;;;;;5062750;28;20089;-86
2022/04/02 07:32:44;;;;;;;15.98;9.15;;;;;;;;;;5071165;28;20048;-86
2022/04/02 07:35:11;;;;;;;16.00;9.13;;;;;;;;;;5069583;28;20087;-86
2022/04/02 07:37:46;;;;;;;15.60;9.75;;;;;;;;;;5068678;28;20087;-86
2022/04/02 07:40:17;;;;;;;16.50;9.82;;;;;;;;;;5067138;28;20048;-86
2022/04/02 07:42:52;;;;;;;14.38;10.23;;;;;;;;;;5069540;28;20083;-86
2022/04/02 07:45:21;;;;;;;17.48;10.20;;;;;;;;;;5067304;28;20063;-86
2022/04/02 07:47:55;;;;;;;16.55;11.50;;;;;;;;;;5066523;28;20048;-86
2022/04/02 07:50:24;;;;;;;19.85;12.20;;;;;;;;;;5070179;28;20109;-86
2022/04/02 07:52:53;;;;;;;20.48;12.35;;;;;;;;;;5065688;28;20040;-86
2022/04/02 07:55:20;;;;;;;16.33;10.15;;;;;;;;;;5069124;28;20132;-87
2022/04/02 07:57:50;;;;;;;17.80;10.82;;;;;;;;;;5068966;28;20052;-86
2022/04/02 08:00:19;;;;;;;18.35;10.93;;;;;;;;;;5069530;28;20041;-86
2022/04/02 08:02:50;;;;;;;14.25;10.38;;;;;;;;;;5071060;28;20113;-86
2022/04/02 08:05:18;;;;;;;14.60;8.77;;;;;;;;;;5068562;28;20041;-86
2022/04/02 08:07:49;;;;;;;20.80;10.68;;;;;;;;;;5070218;28;20097;-87
2022/04/02 08:10:17;;;;;;;14.90;9.95;;;;;;;;;;5064165;28;20090;-87
2022/04/02 08:12:47;;;;;;;20.77;11.55;;;;;;;;;;5067076;28;20068;-87
2022/04/02 08:15:17;;;;;;;17.25;10.50;;;;;;;;;;5065398;28;20048;-87
2022/04/02 08:17:45;;;;;;;21.42;11.30;;;;;;;;;;5069439;28;20501;-88
2022/04/02 08:20:14;;;;;;;15.68;10.18;;;;;;;;;;5067740;28;20131;-88
2022/04/02 08:22:45;;;;;;;19.17;10.68;;;;;;;;;;5068696;28;20059;-87
2022/04/02 08:25:12;;;;;;;19.15;10.27;;;;;;;;;;5066884;28;20049;-87
2022/04/02 08:27:45;;;;;;;18.98;10.90;;;;;;;;;;5067860;28;21044;-87
2022/04/02 08:30:17;;;;;;;20.83;10.95;;;;;;;;;;5068740;28;20098;-87
2022/04/02 08:33:13;;;;;;;19.25;10.88;;;;;;;;;;5065353;28;20040;-87
2022/04/02 08:35:43;;;;;;;17.35;9.95;;;;;;;;;;5072333;28;20133;-87
2022/04/02 08:38:23;;;;;;;17.17;10.65;;;;;;;;;;5072085;28;20076;-86
2022/04/02 08:41:21;;;;;;;15.85;10.75;;;;;;;;;;5072392;28;20105;-85
2022/04/02 08:44:17;;;;;;;15.32;10.35;;;;;;;;;;5065795;28;20048;-86
2022/04/02 08:47:01;;;;;;;20.40;10.93;;;;;;;;;;5067681;28;20090;-86
2022/04/02 08:49:37;;;;;;;17.77;11.77;;;;;;;;;;5068717;28;20383;-86
2022/04/02 08:52:10;;;;;;;;;;;;;;;;;;5069666;28;20071;-85
2022/04/02 08:54:40;;;;;;;16.27;10.90;;;;;;;;;;5064440;28;20429;-85
2022/04/02 08:57:14;;;;;;;17.45;11.30;;;;;;;;;;5062159;28;20063;-85
2022/04/02 08:59:52;;;;;;;18.50;10.73;;;;;;;;;;5061937;28;20176;-85
2022/04/02 09:02:49;;;;;;;20.00;11.57;;;;;;;;;;5062980;28;20388;-86
2022/04/02 09:05:23;;;;;;;19.27;12.45;;;;;;;;;;5063904;28;20135;-86
2022/04/02 09:08:26;;;;;;;16.92;11.52;;;;;;;;;;5063138;28;20148;-85
2022/04/02 09:11:23;;;;;;;19.27;11.10;;;;;;;;;;5062855;28;20048;-85
2022/04/02 09:14:25;;;;;;;16.63;10.93;;;;;;;;;;5063256;28;20131;-85
2022/04/02 09:17:01;;;;;;;24.60;12.48;;;;;;;;;;5060059;28;20064;-85
2022/04/02 09:19:41;;;;;;;25.05;13.85;;;;;;;;;;5064421;28;20132;-85
2022/04/02 09:22:19;;;;;;;25.85;11.65;;;;;;;;;;5060445;28;20050;-85
2022/04/02 09:25:09;;;;;;;17.38;11.40;;;;;;;;;;5058785;28;20523;-86
2022/04/02 09:28:02;;;;;;;21.35;13.45;;;;;;;;;;5059376;28;20195;-86
2022/04/02 09:30:54;;;;;;;25.65;14.15;;;;;;;;;;5063605;28;20441;-86
2022/04/02 09:34:07;;;;;;;24.13;13.88;;;;;;;;;;5058465;28;20111;-86
2022/04/02 09:36:42;;;;;;;21.40;13.18;;;;;;;;;;5060176;28;20056;-85
2022/04/02 09:39:18;;;;;;;17.37;11.80;;;;;;;;;;5060395;28;20063;-86
2022/04/02 09:42:09;;;;;;;24.10;15.97;;;;;;;;;;5063214;28;20517;-86
2022/04/02 09:44:54;;;;;;;20.95;12.02;;;;;;;;;;5074676;28;20130;-86
2022/04/02 09:47:23;;;;;;;20.70;11.82;;;;;;;;;;5067325;28;20123;-86
2022/04/02 09:50:08;;;;;;;20.50;10.60;;;;;;;;;;5064382;28;20063;-86
2022/04/02 09:52:40;;;;;;;20.98;10.63;;;;;;;;;;5063961;28;20626;-86
2022/04/02 09:55:10;;;;;;;20.08;11.10;;;;;;;;;;5065685;28;20060;-85
2022/04/02 09:57:58;;;;;;;18.98;10.10;;;;;;;;;;5064382;28;20137;-85
2022/04/02 10:00:26;;;;;;;30.73;14.35;;;;;;;;;;5064887;28;20068;-85
2022/04/02 10:03:02;;;;;;;26.80;13.20;;;;;;;;;;5049543;28;20052;-86
2022/04/02 10:05:37;;;;;;;30.27;13.02;;;;;;;;;;5062647;28;20619;-86
2022/04/02 10:08:07;;;;;;;18.40;12.73;;;;;;;;;;5065382;28;20420;-86
2022/04/02 10:10:35;;;;;;;38.63;17.42;;;;;;;;;;5063496;28;20048;-86
2022/04/02 10:13:03;;;;;;;28.10;14.55;;;;;;;;;;5063880;28;20045;-86
2022/04/02 10:15:32;;;;;;;32.70;14.13;;;;;;;;;;5062537;28;20053;-86
2022/04/02 10:18:04;;;;;;;22.55;12.88;;;;;;;;;;5063061;28;20496;-85
2022/04/02 10:20:33;;;;;;;29.98;13.65;;;;;;;;;;5063774;28;20125;-86
2022/04/02 10:23:07;;;;;;;17.15;9.40;;;;;;;;;;5063684;28;20053;-86
2022/04/02 10:25:34;;;;;;;27.98;13.82;;;;;;;;;;5061563;28;20105;-86
2022/04/02 10:28:04;;;;;;;15.57;9.75;;;;;;;;;;5059888;28;20126;-87
2022/04/02 10:30:33;;;;;;;17.98;10.00;;;;;;;;;;5059220;28;20047;-87
2022/04/02 10:33:26;;;;;;;17.90;10.55;;;;;;;;;;5059460;28;20132;-87
2022/04/02 10:35:51;;;;;;;17.00;9.05;;;;;;;;;;5059369;28;20174;-86
2022/04/02 10:38:32;;;;;;;17.23;9.52;;;;;;;;;;5059444;28;20044;-86
2022/04/02 10:41:00;;;;;;;18.70;9.73;;;;;;;;;;5058476;28;20059;-87
2022/04/02 10:43:28;;;;;;;17.98;10.98;;;;;;;;;;5061100;28;20416;-87
2022/04/02 10:45:56;;;;;;;15.35;9.52;;;;;;;;;;5060386;28;20111;-86
2022/04/02 10:48:28;;;;;;;14.20;9.65;;;;;;;;;;5059255;28;20049;-86
2022/04/02 10:50:55;;;;;;;15.90;9.48;;;;;;;;;;5058960;28;20071;-85
2022/04/02 10:53:24;;;;;;;19.13;9.65;;;;;;;;;;5058534;28;20522;-86
2022/04/02 10:55:59;;;;;;;14.00;9.68;;;;;;;;;;5056738;28;20126;-86
2022/04/02 10:58:26;;;;;;;14.10;9.32;;;;;;;;;;5056145;28;20048;-86
2022/04/02 11:00:56;;;;;;;16.25;10.25;;;;;;;;;;5058540;28;20290;-85
2022/04/02 11:03:30;;;;;;;17.42;10.40;;;;;;;;;;5059098;28;20139;-86
2022/04/02 11:06:54;;;;;;;18.45;11.20;;;;;;;;;;4861923;27;8227641;-78
2022/04/02 11:09:29;;;;;;;27.27;12.82;;;;;;;;;;5156317;27;20074;-78
2022/04/02 11:11:59;;;;;;;17.65;10.73;;;;;;;;;;5156886;27;20038;-78
2022/04/02 11:14:25;;;;;;;16.38;9.13;;;;;;;;;;5157043;27;20043;-79
2022/04/02 11:16:52;;;;;;;13.70;9.20;;;;;;;;;;5157500;27;20379;-79
2022/04/02 11:22:11;;;;;;;13.88;9.07;;;;;;;;;;5157471;27;20072;-78
2022/04/02 11:24:44;;;;;;;12.32;8.25;;;;;;;;;;5157401;27;20039;-78
2022/04/02 11:27:16;;;;;;;19.05;16.13;;;;;;;;;;5158190;27;20081;-78
2022/04/02 11:29:49;;;;;;;17.58;9.48;;;;;;;;;;5159411;27;20074;-79
2022/04/02 11:32:17;;;;;;;12.90;8.77;;;;;;;;;;5156549;27;20117;-78
2022/04/02 11:34:44;;;;;;;13.35;8.60;;;;;;;;;;5156953;27;20047;-77
2022/04/02 11:37:14;;;;;;;15.65;9.57;;;;;;;;;;5160286;27;20071;-78
2022/04/02 11:39:47;;;;;;;13.48;8.40;;;;;;;;;;5156237;27;20054;-78
2022/04/02 11:42:14;;;;;;;12.45;7.88;;;;;;;;;;5152394;27;20118;-78
2022/04/02 11:44:51;;;;;;;13.95;9.70;;;;;;;;;;5156141;27;20134;-78
2022/04/02 11:47:26;;;;;;;14.15;9.43;;;;;;;;;;5141941;27;20129;-78
2022/04/02 11:49:54;;;;;;;15.02;9.93;;;;;;;;;;5135832;28;20379;-77
2022/04/02 11:52:22;;;;;;;15.20;8.77;;;;;;;;;;5134597;28;20054;-78
2022/04/02 11:55:00;;;;;;;12.55;8.30;;;;;;;;;;5134412;28;20083;-78
2022/04/02 11:57:27;;;;;;;12.77;8.55;;;;;;;;;;5134474;28;20043;-79
2022/04/02 11:59:54;;;;;;;15.25;8.60;;;;;;;;;;5134782;28;20094;-78
2022/04/02 12:02:37;;;;;;;17.48;9.32;;;;;;;;;;5134533;28;20122;-78
2022/04/02 12:05:06;;;;;;;12.35;8.75;;;;;;;;;;5132906;28;20047;-77
2022/04/02 12:07:41;;;;;;;11.88;8.35;;;;;;;;;;5134784;28;20372;-78
2022/04/02 12:10:13;;;;;;;16.10;9.50;;;;;;;;;;5134618;28;20039;-78
2022/04/02 12:12:43;;;;;;;12.85;8.27;;;;;;;;;;5134941;28;20078;-78
2022/04/02 12:15:11;;;;;;;11.40;7.45;;;;;;;;;;5134593;28;20116;-78
2022/04/02 12:17:38;;;;;;;15.38;7.03;;;;;;;;;;5120685;28;20127;-79
2022/04/02 12:20:07;;;;;;;11.55;8.70;;;;;;;;;;5120646;28;20039;-78
2022/04/02 12:22:36;;;;;;;12.90;7.88;;;;;;;;;;5119314;28;20495;-78
2022/04/02 12:25:06;;;;;;;12.30;8.65;;;;;;;;;;5119067;28;20560;-78
2022/04/02 12:27:34;;;;;;;11.18;7.82;;;;;;;;;;5120624;28;20126;-78
2022/04/02 12:30:04;;;;;;;16.65;9.32;;;;;;;;;;5120767;28;20118;-78
2022/04/02 12:32:33;;;;;;;16.42;9.75;;;;;;;;;;5120023;28;20167;-78
2022/04/02 12:35:05;;;;;;;14.60;8.82;;;;;;;;;;5119044;28;20498;-78
2022/04/02 12:37:32;;;;;;;13.57;8.13;;;;;;;;;;5119859;28;20424;-78
2022/04/02 12:40:00;;;;;;;10.95;7.97;;;;;;;;;;5119461;28;20047;-78
2022/04/02 12:42:39;;;;;;;10.75;7.80;;;;;;;;;;5119095;28;20066;-78
2022/04/02 12:45:07;;;;;;;12.73;7.53;;;;;;;;;;5119237;28;20099;-79
2022/04/02 12:47:35;;;;;;;11.63;7.30;;;;;;;;;;5119710;28;20126;-79
2022/04/02 12:50:11;;;;;;;12.65;8.82;;;;;;;;;;5120517;28;20126;-79
2022/04/02 12:52:44;;;;;;;11.77;8.60;;;;;;;;;;5120566;28;20472;-79
2022/04/02 12:55:17;;;;;;;13.20;9.55;;;;;;;;;;5134260;27;20122;-78
2022/04/02 12:57:57;;;;;;;13.38;9.48;;;;;;;;;;5140578;27;20039;-78
2022/04/02 13:00:28;;;;;;;12.90;8.48;;;;;;;;;;5140464;27;20454;-79
2022/04/02 13:02:57;;;;;;;12.60;9.13;;;;;;;;;;5139876;27;20071;-78
2022/04/02 13:05:26;;;;;;;10.93;6.68;;;;;;;;;;5137463;27;20053;-78
2022/04/02 13:08:02;;;;;;;12.52;8.13;;;;;;;;;;5139862;27;20130;-79
2022/04/02 13:10:29;;;;;;;10.70;6.78;;;;;;;;;;5139821;27;20047;-78
2022/04/02 13:13:05;;;;;;;11.27;7.40;;;;;;;;;;5140171;27;20078;-78
2022/04/02 13:15:32;;;;;;;12.68;8.10;;;;;;;;;;5140002;27;20464;-78
2022/04/02 13:20:45;;;;;;;13.57;9.55;;;;;;;;;;5139421;27;20100;-78
2022/04/02 13:23:39;;;;;;;11.55;7.97;;;;;;;;;;5140109;27;20108;-78
2022/04/02 13:26:06;;;;;;;14.05;9.77;;;;;;;;;;5140099;27;20130;-78
2022/04/02 13:28:56;;;;;;;12.73;9.07;;;;;;;;;;5137440;27;20066;-77
2022/04/02 13:31:26;;;;;;;10.80;7.47;;;;;;;;;;5140009;27;20143;-79
2022/04/02 13:34:12;;;;;;;10.98;7.53;;;;;;;;;;5141285;27;20122;-78
2022/04/02 13:36:49;;;;;;;16.08;9.13;;;;;;;;;;5139798;27;20043;-76
2022/04/02 13:39:19;;;;;;;10.02;7.05;;;;;;;;;;5137339;27;20118;-76
2022/04/02 13:41:52;;;;;;;10.60;7.43;;;;;;;;;;5136866;27;20141;-78
2022/04/02 13:44:23;;;;;;;13.57;8.10;;;;;;;;;;5139804;27;20126;-78
2022/04/02 13:46:54;;;;;;;11.27;7.50;;;;;;;;;;5140595;27;20043;-78
2022/04/02 13:49:28;;;;;;;11.00;7.07;;;;;;;;;;5140814;27;20126;-78
2022/04/02 13:51:57;;;;;;;10.85;7.20;;;;;;;;;;5140965;27;20038;-79
2022/04/02 13:54:27;;;;;;;9.95;6.63;;;;;;;;;;5137723;27;20039;-79
2022/04/02 13:57:01;;;;;;;11.27;7.25;;;;;;;;;;5140709;27;20436;-78
2022/04/02 13:59:32;;;;;;;10.82;8.20;;;;;;;;;;5140680;27;20070;-78
2022/04/02 14:02:00;;;;;;;10.40;7.88;;;;;;;;;;5143440;27;20043;-78
2022/04/02 14:04:33;;;;;;;10.82;7.45;;;;;;;;;;5139991;27;20039;-78
2022/04/02 14:07:01;;;;;;;10.07;7.38;;;;;;;;;;5141085;27;20043;-78
2022/04/02 14:09:30;;;;;;;9.73;7.90;;;;;;;;;;5139736;27;20126;-78
2022/04/02 14:12:01;;;;;;;18.48;16.48;;;;;;;;;;5138717;27;20070;-77
2022/04/02 14:14:32;;;;;;;11.95;10.68;;;;;;;;;;5138722;27;20078;-77
2022/04/02 14:17:05;;;;;;;10.90;7.38;;;;;;;;;;5131962;27;20051;-78
2022/04/02 14:19:42;;;;;;;12.75;8.88;;;;;;;;;;5118478;28;20143;-78
2022/04/02 14:22:09;;;;;;;21.27;17.90;;;;;;;;;;5116989;28;20081;-77
2022/04/02 14:24:42;;;;;;;18.60;11.40;;;;;;;;;;5120459;28;20047;-78
2022/04/02 14:27:21;;;;;;;16.65;13.68;;;;;;;;;;5119557;28;20546;-78
2022/04/02 14:30:04;;;;;;;15.65;9.90;;;;;;;;;;5120113;28;20127;-78
2022/04/02 14:33:07;;;;;;;15.20;11.32;;;;;;;;;;5123023;28;20051;-78
2022/04/02 14:36:19;;;;;;;11.25;7.47;;;;;;;;;;5116117;28;20138;-76
2022/04/02 14:39:19;;;;;;;14.98;10.20;;;;;;;;;;5123642;28;20067;-78
2022/04/02 14:42:01;;;;;;;13.93;7.68;;;;;;;;;;5123414;28;20430;-78
2022/04/02 14:44:55;;;;;;;13.43;8.85;;;;;;;;;;5121511;28;20082;-78
2022/04/02 14:48:12;;;;;;;13.48;9.10;;;;;;;;;;5121425;28;20074;-78
2022/04/02 14:51:13;;;;;;;10.38;6.82;;;;;;;;;;5123014;28;20075;-78
2022/04/02 14:54:27;;;;;;;10.43;6.70;;;;;;;;;;5116396;28;20050;-78
2022/04/02 14:57:26;;;;;;;10.48;5.75;;;;;;;;;;5120374;28;20043;-78
2022/04/02 15:00:15;;;;;;;11.70;7.10;;;;;;;;;;5119321;28;20114;-78